Providence, Rhode Island
Traffic Map
Current Weather Conditions
Providence, Rhode Island
Broken Clouds
Broken Clouds

Feels Like: -2°
Wind Chill: -2° Ceiling: 4800
Heat Index: Visibility: 10mi
Dew Point: -5° Wind: 10mph
Humidity: 59% Direction: 300° (WNW)
Pressure: 29.95in Gusts: 0mph
Raw Report DataKPVD 191351Z 30009KT 10SM FEW043 BKN048 02/M05 A2995 RMK AO2 SLP143 T00221050
Traffic Incident Summary
Active as of:
Severity:
Category:
InformationThere was an issue retrieving the traffic information for this location. Please try a different location or try again shortly.
Advertisements
Track Severe Weather on mobile